createdAt,value
2023-01-28T00:01:51.408Z,96009.28
2023-01-28T00:06:54.070Z,96011.84
2023-01-28T00:11:56.481Z,96017.03
2023-01-28T00:16:58.797Z,96014.16
2023-01-28T00:22:01.106Z,96006.19
2023-01-28T00:27:03.435Z,96011.38
2023-01-28T00:32:05.778Z,96002.88
2023-01-28T00:37:08.184Z,96008.69
2023-01-28T00:42:10.502Z,96011.03
2023-01-28T00:47:13.075Z,96012.19
2023-01-28T00:52:16.695Z,96008.31
2023-01-28T00:57:19.001Z,96010.03
2023-01-28T01:02:21.338Z,96011.56
2023-01-28T01:07:32.177Z,96009.81
2023-01-28T01:12:34.785Z,96008.31
2023-01-28T01:17:37.778Z,96019.22
2023-01-28T01:22:40.110Z,96023.84
2023-01-28T01:27:42.544Z,96018.72
2023-01-28T01:32:45.450Z,96021.84
2023-01-28T01:37:47.762Z,96022.09
2023-01-28T01:42:50.162Z,96027.25
2023-01-28T01:47:52.595Z,96029.53
2023-01-28T01:52:55.060Z,96039.41
2023-01-28T01:57:57.395Z,96031.06
2023-01-28T02:02:59.788Z,96047.16
2023-01-28T02:08:15.997Z,96043.66
2023-01-28T02:13:18.475Z,96041.06
2023-01-28T02:18:20.835Z,96052.16
2023-01-28T02:23:23.501Z,96047.00
2023-01-28T02:28:25.871Z,96048.47
2023-01-28T02:33:28.545Z,96047.91
2023-01-28T02:38:30.937Z,96059.22
2023-01-28T02:43:33.335Z,96057.59
2023-01-28T02:48:35.719Z,96049.53
2023-01-28T02:53:44.865Z,96056.44
2023-01-28T02:58:47.195Z,96053.00
2023-01-28T03:03:49.600Z,96060.25
2023-01-28T03:09:09.586Z,96057.19
2023-01-28T03:14:29.566Z,96066.06
2023-01-28T03:19:49.639Z,96073.41
2023-01-28T03:25:09.488Z,96071.69
2023-01-28T03:30:29.401Z,96077.19
2023-01-28T03:35:49.233Z,96078.03
2023-01-28T03:40:51.546Z,96083.56
2023-01-28T03:45:55.414Z,96076.22
2023-01-28T03:50:59.085Z,96081.66
2023-01-28T03:56:01.501Z,96086.03
2023-01-28T04:01:03.982Z,96075.41
2023-01-28T04:06:06.406Z,96086.91
2023-01-28T04:11:16.566Z,96084.47
2023-01-28T04:16:18.960Z,96082.84
2023-01-28T04:21:21.628Z,96095.44
2023-01-28T04:26:24.017Z,96093.72
2023-01-28T04:31:26.405Z,96102.16
2023-01-28T04:36:28.714Z,96109.44
2023-01-28T04:41:31.121Z,96107.69
2023-01-28T04:46:33.602Z,96111.59
2023-01-28T04:51:35.982Z,96108.25
2023-01-28T04:56:38.279Z,96119.34
2023-01-28T05:01:40.648Z,96119.53
2023-01-28T05:06:43.117Z,96122.41
2023-01-28T05:11:45.531Z,96126.84
2023-01-28T05:16:47.906Z,96130.50
2023-01-28T05:21:50.289Z,96135.50
2023-01-28T05:26:52.753Z,96133.22
2023-01-28T05:31:55.190Z,96141.94
2023-01-28T05:36:57.556Z,96147.38
2023-01-28T05:41:59.996Z,96155.63
2023-01-28T05:47:02.317Z,96153.09
2023-01-28T05:52:04.758Z,96161.34
2023-01-28T05:57:07.231Z,96164.69
2023-01-28T06:02:09.692Z,96174.22
2023-01-28T06:07:13.331Z,96161.97
2023-01-28T06:12:16.031Z,96174.78
2023-01-28T06:17:18.413Z,96171.25
2023-01-28T06:22:20.702Z,96176.94
2023-01-28T06:27:22.995Z,96178.31
2023-01-28T06:32:25.642Z,96183.03
2023-01-28T06:37:28.058Z,96179.09
2023-01-28T06:42:32.483Z,96189.56
2023-01-28T06:47:34.787Z,96198.28
2023-01-28T06:52:37.090Z,96190.31
2023-01-28T06:57:39.478Z,96197.84
2023-01-28T07:02:41.844Z,96208.00
2023-01-28T07:07:45.528Z,96208.72
2023-01-28T07:12:47.974Z,96218.06
2023-01-28T07:17:50.456Z,96216.09
2023-01-28T07:22:52.741Z,96220.53
2023-01-28T07:27:55.020Z,96231.78
2023-01-28T07:32:57.344Z,96237.84
2023-01-28T07:37:59.671Z,96234.59
2023-01-28T07:43:02.273Z,96239.59
2023-01-28T07:48:04.651Z,96255.09
2023-01-28T07:53:07.016Z,96250.03
2023-01-28T07:58:09.432Z,96256.59
2023-01-28T08:03:11.762Z,96256.69
2023-01-28T08:08:14.287Z,96261.56
2023-01-28T08:13:16.773Z,96268.38
2023-01-28T08:18:19.348Z,96267.91
2023-01-28T08:23:23.307Z,96275.19
2023-01-28T08:28:26.946Z,96277.72
2023-01-28T08:33:29.314Z,96287.31
2023-01-28T08:38:31.753Z,96291.97
2023-01-28T08:43:34.313Z,96291.84
2023-01-28T08:48:38.456Z,96287.84
2023-01-28T08:53:41.028Z,96293.44
2023-01-28T08:58:45.069Z,96294.13
2023-01-28T09:03:47.696Z,96292.41
2023-01-28T09:08:50.245Z,96301.22
2023-01-28T09:13:52.741Z,96300.06
2023-01-28T09:18:55.193Z,96294.34
2023-01-28T09:23:58.518Z,96300.69
2023-01-28T09:29:01.033Z,96305.34
2023-01-28T09:34:04.119Z,96301.47
2023-01-28T09:39:06.505Z,96294.03
2023-01-28T09:44:08.982Z,96301.44
2023-01-28T09:49:12.604Z,96297.03
2023-01-28T09:54:15.036Z,96297.31
2023-01-28T09:59:17.416Z,96288.50
2023-01-28T10:04:22.991Z,96289.00
2023-01-28T10:09:25.794Z,96283.41
2023-01-28T10:14:28.167Z,96278.47
2023-01-28T10:19:30.712Z,96273.06
2023-01-28T10:24:33.238Z,96260.97
2023-01-28T10:29:36.612Z,96269.66
2023-01-28T10:34:39.112Z,96265.75
2023-01-28T10:39:41.861Z,96270.16
2023-01-28T10:44:44.289Z,96269.28
2023-01-28T10:49:46.597Z,96261.28
2023-01-28T10:54:49.288Z,96253.28
2023-01-28T10:59:51.589Z,96257.13
2023-01-28T11:04:53.874Z,96252.03
2023-01-28T11:09:56.208Z,96253.66
2023-01-28T11:14:58.725Z,96256.31
2023-01-28T11:20:01.135Z,96257.75
2023-01-28T11:25:03.772Z,96252.22
2023-01-28T11:30:08.051Z,96264.97
2023-01-28T11:35:10.887Z,96257.19
2023-01-28T11:40:14.527Z,96256.84
2023-01-28T11:45:17.370Z,96263.25
2023-01-28T11:50:20.280Z,96262.50
2023-01-28T11:55:22.883Z,96251.97
2023-01-28T12:00:25.507Z,96247.97
2023-01-28T12:05:28.071Z,96246.97
2023-01-28T12:10:30.706Z,96251.56
2023-01-28T12:15:33.122Z,96255.69
2023-01-28T12:20:35.668Z,96258.75
2023-01-28T12:25:38.162Z,96261.81
2023-01-28T12:30:41.212Z,96257.06
2023-01-28T12:35:44.741Z,96266.59
2023-01-28T12:40:47.104Z,96259.63
2023-01-28T12:45:49.561Z,96271.16
2023-01-28T12:50:52.073Z,96279.47
2023-01-28T12:55:54.510Z,96266.13
2023-01-28T13:00:56.896Z,96266.34
2023-01-28T13:05:59.297Z,96272.63
2023-01-28T13:11:01.655Z,96261.75
2023-01-28T13:16:04.100Z,96269.34
2023-01-28T13:21:07.091Z,96271.53
2023-01-28T13:26:09.438Z,96275.41
2023-01-28T13:31:14.346Z,96273.41
2023-01-28T13:36:16.747Z,96277.69
2023-01-28T13:41:19.474Z,96279.22
2023-01-28T13:46:21.891Z,96287.34
2023-01-28T13:51:24.389Z,96290.38
2023-01-28T13:56:27.032Z,96289.31
2023-01-28T14:01:29.492Z,96299.47
2023-01-28T14:06:31.899Z,96309.41
2023-01-28T14:11:34.271Z,96318.06
2023-01-28T14:16:36.676Z,96310.78
2023-01-28T14:21:39.144Z,96318.66
2023-01-28T14:26:41.722Z,96323.59
2023-01-28T14:31:44.294Z,96331.78
2023-01-28T14:36:47.074Z,96329.06
2023-01-28T14:41:49.837Z,96338.88
2023-01-28T14:46:52.335Z,96333.75
2023-01-28T14:51:54.760Z,96332.63
2023-01-28T14:56:57.186Z,96336.94
2023-01-28T15:01:59.547Z,96344.41
2023-01-28T15:07:02.042Z,96345.94
2023-01-28T15:12:04.379Z,96346.38
2023-01-28T15:17:06.740Z,96357.78
2023-01-28T15:22:09.071Z,96353.25
2023-01-28T15:27:11.406Z,96357.31
2023-01-28T15:32:13.723Z,96356.03
2023-01-28T15:37:16.016Z,96368.19
2023-01-28T15:42:18.315Z,96379.16
2023-01-28T15:47:20.721Z,96386.81
2023-01-28T15:52:23.297Z,96392.28
2023-01-28T15:57:27.313Z,96406.03
2023-01-28T16:02:29.694Z,96398.31
2023-01-28T16:07:32.217Z,96397.88
2023-01-28T16:12:34.590Z,96412.53
2023-01-28T16:17:37.045Z,96422.22
2023-01-28T16:22:39.417Z,96408.19
2023-01-28T16:27:41.885Z,96431.28
2023-01-28T16:32:44.325Z,96436.47
2023-01-28T16:37:46.656Z,96433.78
2023-01-28T16:42:49.580Z,96443.84
2023-01-28T16:47:52.074Z,96440.34
2023-01-28T16:52:54.419Z,96449.63
2023-01-28T16:57:56.889Z,96452.06
2023-01-28T17:02:59.307Z,96453.75
2023-01-28T17:08:01.667Z,96454.56
2023-01-28T17:13:04.117Z,96469.50
2023-01-28T17:18:06.434Z,96463.13
2023-01-28T17:23:09.113Z,96471.78
2023-01-28T17:28:11.412Z,96476.41
2023-01-28T17:33:13.763Z,96484.59
2023-01-28T17:38:16.046Z,96483.97
2023-01-28T17:43:18.396Z,96488.34
2023-01-28T17:48:21.875Z,96483.88
2023-01-28T17:53:24.850Z,96488.34
2023-01-28T17:58:27.138Z,96492.34
2023-01-28T18:03:29.526Z,96491.59
2023-01-28T18:08:31.809Z,96487.16
2023-01-28T18:13:34.117Z,96485.13
2023-01-28T18:18:36.497Z,96491.06
2023-01-28T18:23:38.780Z,96497.81
2023-01-28T18:28:41.125Z,96508.53
2023-01-28T18:33:43.409Z,96509.59
2023-01-28T18:38:45.746Z,96514.53
2023-01-28T18:43:48.050Z,96512.91
2023-01-28T18:48:50.396Z,96516.16
2023-01-28T18:53:53.479Z,96516.34
2023-01-28T18:58:55.769Z,96511.28
2023-01-28T19:03:58.103Z,96510.78
2023-01-28T19:09:00.517Z,96521.00
2023-01-28T19:14:02.906Z,96518.38
2023-01-28T19:19:05.229Z,96518.06
2023-01-28T19:24:09.406Z,96509.06
2023-01-28T19:29:13.436Z,96517.25
2023-01-28T19:34:17.707Z,96510.97
2023-01-28T19:39:20.408Z,96517.25
2023-01-28T19:44:22.834Z,96511.50
2023-01-28T19:49:25.121Z,96507.69
2023-01-28T19:54:27.416Z,96510.22
2023-01-28T19:59:29.782Z,96514.13
2023-01-28T20:04:32.149Z,96516.78
2023-01-28T20:09:34.468Z,96508.25
2023-01-28T20:14:36.756Z,96499.84
2023-01-28T20:19:39.205Z,96509.47
2023-01-28T20:24:41.527Z,96505.41
2023-01-28T20:29:43.810Z,96511.06
2023-01-28T20:34:46.145Z,96522.44
2023-01-28T20:39:48.535Z,96520.69
2023-01-28T20:44:51.530Z,96521.91
2023-01-28T20:49:53.879Z,96524.44
2023-01-28T20:54:56.199Z,96529.25
2023-01-28T20:59:58.587Z,96530.97
2023-01-28T21:05:00.896Z,96537.16
2023-01-28T21:10:03.229Z,96541.97
2023-01-28T21:15:05.723Z,96543.72
2023-01-28T21:20:08.013Z,96545.44
2023-01-28T21:25:10.377Z,96542.44
2023-01-28T21:30:12.800Z,96546.72
2023-01-28T21:35:15.189Z,96554.38
2023-01-28T21:40:17.828Z,96545.09
2023-01-28T21:45:20.392Z,96549.44
2023-01-28T21:50:22.706Z,96553.00
2023-01-28T21:55:25.031Z,96565.66
2023-01-28T22:00:27.624Z,96554.28
2023-01-28T22:05:29.929Z,96557.63
2023-01-28T22:10:32.255Z,96562.22
2023-01-28T22:15:34.615Z,96561.94
2023-01-28T22:20:36.970Z,96565.28
2023-01-28T22:25:39.321Z,96572.59
2023-01-28T22:30:41.725Z,96575.31
2023-01-28T22:35:44.213Z,96565.59
2023-01-28T22:40:46.559Z,96568.06
2023-01-28T22:45:48.895Z,96553.00
2023-01-28T22:50:51.259Z,96551.56
2023-01-28T22:55:53.629Z,96551.03
2023-01-28T23:00:56.046Z,96557.22
2023-01-28T23:05:58.420Z,96555.03
2023-01-28T23:11:00.870Z,96565.94
2023-01-28T23:16:20.597Z,96557.03
2023-01-28T23:21:40.343Z,96563.03
2023-01-28T23:26:42.645Z,96570.09
2023-01-28T23:31:46.608Z,96561.47
2023-01-28T23:36:50.584Z,96564.00
2023-01-28T23:41:52.914Z,96554.25
2023-01-28T23:46:56.339Z,96552.56
2023-01-28T23:51:58.832Z,96554.84
2023-01-28T23:57:01.173Z,96558.09
